Time;durP1;ratioP1;P1;durP2;ratioP2;P2;SDS_P1;SDS_P2;PMS_P1;PMS_P2;Temp;Humidity;BMP_temperature;BMP_pressure;BME280_temperature;BME280_humidity;BME280_pressure;Samples;Min_cycle;Max_cycle;Signal;HPM_P1;HPM_P2
2022/09/25 09:14:05;;;;;;;11.50;7.17;;;;;;;25.36;100.00;98794.84;4565557;76;83361;-87
2022/09/25 09:20:18;;;;;;;10.90;6.87;;;;;;;25.93;57.21;98806.34;4478409;77;28601;-80
2022/09/25 09:26:25;;;;;;;10.93;6.83;;;;;;;25.16;55.67;98804.14;4468514;77;28513;-77
2022/09/25 09:32:32;;;;;;;10.18;6.47;;;;;;;24.45;56.21;98803.72;4508502;77;28629;-79
2022/09/25 09:38:43;;;;;;;11.03;7.12;;;;;;;24.26;55.17;98804.69;4484196;77;28546;-79
2022/09/25 09:45:13;;;;;;;9.73;6.08;;;;;;;24.08;57.20;98791.00;4478159;77;28515;-78
2022/09/25 09:51:22;;;;;;;7.75;5.58;;;;;;;23.67;55.06;98792.59;4484697;77;28610;-78
2022/09/25 09:57:27;;;;;;;9.23;6.62;;;;;;;23.76;54.60;98796.71;4486437;77;28516;-78
2022/09/25 10:03:34;;;;;;;9.60;7.05;;;;;;;23.71;54.18;98794.13;4473305;77;28541;-86
2022/09/25 10:09:36;;;;;;;10.82;6.33;;;;;;;23.78;55.78;98804.05;4373543;79;28555;-84
2022/09/25 10:15:46;;;;;;;10.68;7.22;;;;;;;23.77;56.67;98790.09;4300947;81;28482;-84
2022/09/25 10:21:58;;;;;;;10.95;7.58;;;;;;;23.90;53.68;98784.17;4345043;81;28668;-84
2022/09/25 10:28:23;;;;;;;11.93;8.20;;;;;;;24.36;53.58;98785.09;4309951;81;28514;-84
2022/09/25 10:34:27;;;;;;;14.18;10.25;;;;;;;24.20;53.22;98776.59;4300545;81;28573;-84
2022/09/25 10:40:37;;;;;;;17.42;9.65;;;;;;;23.74;54.40;98769.34;4276936;81;28496;-81
2022/09/25 10:53:00;;;;;;;16.57;11.48;;;;;;;23.75;55.16;98774.52;4314161;81;28521;-80
2022/09/25 10:59:09;;;;;;;19.10;12.10;;;;;;;23.56;55.21;98780.34;4324699;81;28516;-81
2022/09/25 11:05:18;;;;;;;20.08;12.78;;;;;;;23.47;56.13;98780.91;4330164;81;28519;-80
2022/09/25 11:11:25;;;;;;;21.37;11.73;;;;;;;23.56;57.33;98770.73;4319897;81;28570;-82
2022/09/25 11:17:37;;;;;;;16.10;10.30;;;;;;;23.28;58.15;98766.98;4329254;81;28516;-85
2022/09/25 11:23:44;;;;;;;15.20;10.20;;;;;;;22.51;57.03;98763.22;4299352;81;28468;-78
2022/09/25 11:30:17;;;;;;;14.68;10.00;;;;;;;23.15;57.53;98763.78;4369083;81;28507;-77
2022/09/25 11:36:46;;;;;;;14.35;10.03;;;;;;;23.84;57.20;98762.14;4333762;81;28490;-79
2022/09/25 11:42:53;;;;;;;12.58;8.63;;;;;;;22.70;59.20;98760.19;4305281;81;28545;-77
2022/09/25 11:49:16;;;;;;;15.00;9.25;;;;;;;22.77;59.21;98760.53;4324660;82;28556;-78
2022/09/25 11:55:44;;;;;;;11.75;8.45;;;;;;;22.36;59.27;98752.09;4231969;83;28546;-79
2022/09/25 12:02:09;;;;;;;12.45;8.63;;;;;;;22.62;58.21;98730.84;4275188;83;28503;-78
2022/09/25 12:08:59;;;;;;;15.43;8.55;;;;;;;23.84;56.45;98737.44;4298004;82;28534;-79
2022/09/25 12:15:45;;;;;;;13.48;8.35;;;;;;;24.59;53.37;98735.36;4374622;81;28505;-81
2022/09/25 12:22:33;;;;;;;10.60;7.35;;;;;;;23.66;55.33;98720.22;4366823;81;28603;-79
2022/09/25 12:29:05;;;;;;;10.10;7.40;;;;;;;23.22;54.13;98707.91;4377007;81;28545;-82
2022/09/25 12:35:51;;;;;;;11.30;7.40;;;;;;;23.75;53.85;98684.50;4380690;81;28505;-84
2022/09/25 12:42:06;;;;;;;10.63;7.45;;;;;;;23.67;53.95;98680.66;4375620;81;28512;-85
2022/09/25 12:48:34;;;;;;;8.68;5.67;;;;;;;24.85;52.08;98673.94;4362530;80;28534;-81
2022/09/25 12:54:59;;;;;;;9.23;6.30;;;;;;;23.95;51.80;98685.71;4369178;81;28541;-81
2022/09/25 13:01:10;;;;;;;8.33;6.13;;;;;;;23.70;53.13;98689.61;4365830;81;38426;-82
2022/09/25 13:07:20;;;;;;;11.78;6.42;;;;;;;23.80;52.32;98684.34;4292075;82;28503;-84
2022/09/25 13:13:25;;;;;;;11.28;6.22;;;;;;;23.46;53.04;98670.39;4341834;81;28520;-79
2022/09/25 13:19:33;;;;;;;10.05;6.45;;;;;;;23.29;54.09;98682.76;4401869;80;28548;-86
2022/09/25 13:26:01;;;;;;;;;;;;;;;23.75;54.37;98677.64;4351853;80;28544;-78
2022/09/25 13:32:13;;;;;;;9.10;6.15;;;;;;;23.36;54.76;98674.27;4423605;79;20519;-79
2022/09/25 13:40:41;;;;;;;7.72;6.10;;;;;;;23.31;54.76;98671.71;4385780;80;28560;-80
2022/09/25 13:44:43;;;;;;;9.35;5.92;;;;;;;23.65;55.31;98674.70;4447655;80;28471;-81
2022/09/25 13:50:46;;;;;;;8.55;6.30;;;;;;;23.45;55.05;98674.27;4438885;80;28525;-82
2022/09/25 13:56:49;;;;;;;9.60;6.75;;;;;;;23.51;55.35;98666.67;4248762;83;28502;-81
2022/09/25 14:02:59;;;;;;;10.55;6.97;;;;;;;23.18;55.76;98662.50;4282078;80;28606;-81
2022/09/25 14:09:03;;;;;;;14.30;8.23;;;;;;;22.82;56.01;98664.45;4420883;79;28507;-81
2022/09/25 14:15:12;;;;;;;15.05;8.43;;;;;;;22.57;57.60;98656.45;4353687;80;28494;-81
2022/09/25 14:21:17;;;;;;;16.12;10.30;;;;;;;22.61;57.98;98651.97;4337521;80;28502;-81
2022/09/25 14:27:25;;;;;;;16.32;11.08;;;;;;;22.09;59.94;98642.50;4362724;80;28576;-81
2022/09/25 14:33:35;;;;;;;18.07;11.35;;;;;;;21.86;61.47;98650.78;4351857;81;28450;-81
2022/09/25 14:39:47;;;;;;;18.25;12.20;;;;;;;22.04;61.96;98629.53;4359189;81;28517;-81
2022/09/25 14:46:03;;;;;;;20.92;13.55;;;;;;;22.02;63.00;98625.73;4378705;80;28472;-80
2022/09/25 14:52:17;;;;;;;19.90;14.33;;;;;;;21.70;63.04;98631.23;4369593;80;28558;-79
2022/09/25 14:58:26;;;;;;;21.40;13.60;;;;;;;21.67;63.77;98615.47;4415142;78;28487;-87
2022/09/25 15:04:32;;;;;;;21.60;13.98;;;;;;;21.64;63.97;98615.25;4372991;80;28536;-88
2022/09/25 15:10:41;;;;;;;21.02;14.45;;;;;;;21.57;64.61;98622.55;4359822;80;28609;-80
2022/09/25 15:23:07;;;;;;;19.20;12.88;;;;;;;21.52;66.87;98607.66;4303539;82;28548;-80
2022/09/25 15:29:20;;;;;;;18.73;13.47;;;;;;;21.41;67.36;98602.47;4301842;82;28517;-79
2022/09/25 15:35:25;;;;;;;16.42;10.45;;;;;;;21.35;66.59;98602.89;4303309;82;28526;-80
2022/09/25 15:41:28;;;;;;;17.17;11.80;;;;;;;21.30;68.42;98592.34;4302985;82;28564;-79
2022/09/25 15:47:38;;;;;;;15.93;10.93;;;;;;;21.29;67.21;98607.14;4295291;80;28563;-79
2022/09/25 15:53:43;;;;;;;15.08;10.45;;;;;;;21.30;68.99;98597.81;4378944;80;28535;-78
2022/09/25 16:06:17;;;;;;;14.93;9.98;;;;;;;21.38;68.73;98594.08;4300408;82;28985;-81
2022/09/25 16:12:48;;;;;;;17.05;10.53;;;;;;;21.14;70.78;98587.84;4456506;79;28533;-80
2022/09/25 16:18:53;;;;;;;16.60;10.18;;;;;;;20.99;71.86;98584.14;4439498;79;28520;-79
2022/09/25 16:24:54;;;;;;;15.50;10.03;;;;;;;21.12;70.98;98572.86;4466394;79;28495;-87
2022/09/25 16:31:09;;;;;;;16.20;10.05;;;;;;;21.65;69.28;98563.52;4384873;79;28492;-91
2022/09/25 16:37:20;;;;;;;15.70;10.63;;;;;;;21.83;68.32;98572.64;4387895;80;28528;-80
2022/09/25 16:43:28;;;;;;;15.53;10.38;;;;;;;21.58;68.25;98567.55;4380309;81;28523;-80
2022/09/25 16:49:32;;;;;;;17.95;10.48;;;;;;;21.38;69.64;98574.36;4359787;81;28559;-78
2022/09/25 16:55:40;;;;;;;13.30;9.05;;;;;;;21.22;70.53;98590.94;4368870;79;28601;-78
2022/09/25 17:01:43;;;;;;;13.32;9.00;;;;;;;21.00;70.82;98578.92;4378214;81;28554;-78
2022/09/25 17:07:48;;;;;;;15.05;9.95;;;;;;;20.67;73.12;98585.95;4382900;79;28573;-79
2022/09/25 17:13:50;;;;;;;16.32;9.23;;;;;;;20.58;73.99;98588.63;4336743;80;28494;-80
2022/09/25 17:19:52;;;;;;;16.90;9.73;;;;;;;20.51;74.47;98586.86;4435002;78;28493;-79
2022/09/25 17:26:27;;;;;;;15.70;9.28;;;;;;;20.62;74.27;98589.63;4414651;79;28524;-79
2022/09/25 17:32:35;;;;;;;15.05;9.53;;;;;;;20.29;75.87;98593.91;4400754;80;28578;-79
2022/09/25 17:38:34;;;;;;;13.45;8.85;;;;;;;20.61;74.25;98592.91;4418877;79;28506;-79
2022/09/25 17:44:36;;;;;;;15.58;9.88;;;;;;;20.32;74.41;98590.58;4435738;78;28536;-79
2022/09/25 17:50:38;;;;;;;16.30;10.13;;;;;;;20.21;76.46;98581.80;4373891;80;28464;-80
2022/09/25 17:56:45;;;;;;;16.87;11.45;;;;;;;20.32;75.79;98581.81;4400535;80;28530;-78
2022/09/25 18:02:46;;;;;;;20.33;11.67;;;;;;;20.08;77.56;98577.18;4418698;79;28506;-79
2022/09/25 18:08:49;;;;;;;17.80;12.15;;;;;;;20.14;77.18;98574.03;4330185;80;28515;-80
2022/09/25 18:14:51;;;;;;;17.35;11.22;;;;;;;20.04;77.83;98570.16;4326402;81;28489;-79
2022/09/25 18:26:58;;;;;;;13.18;9.05;;;;;;;19.92;78.94;98572.00;4263214;80;28571;-78
2022/09/25 18:33:04;;;;;;;15.40;9.20;;;;;;;19.74;81.94;98571.83;4359174;80;28506;-77
2022/09/25 18:39:06;;;;;;;13.53;9.40;;;;;;;19.64;82.52;98564.64;4341670;81;28528;-79
2022/09/25 18:45:17;;;;;;;16.67;10.58;;;;;;;20.16;80.24;98564.19;4350048;81;28520;-80
2022/09/25 18:51:20;;;;;;;13.95;8.35;;;;;;;20.29;76.15;98570.70;4359047;80;28528;-78
2022/09/25 18:57:25;;;;;;;14.55;8.53;;;;;;;20.33;76.44;98577.97;4346912;80;28547;-80
2022/09/25 19:03:29;;;;;;;14.90;8.55;;;;;;;20.45;76.69;98578.80;4355824;81;28599;-86
2022/09/25 19:09:38;;;;;;;13.38;8.45;;;;;;;20.55;74.81;98586.52;4361898;80;28499;-84
2022/09/25 19:15:35;;;;;;;11.80;8.20;;;;;;;20.44;75.75;98578.56;4310910;81;28558;-80
2022/09/25 19:21:37;;;;;;;13.55;8.93;;;;;;;20.23;76.83;98573.31;4319707;81;28559;-80
2022/09/25 19:27:39;;;;;;;16.90;10.10;;;;;;;20.26;76.50;98578.97;4308672;81;28514;-79
2022/09/25 19:33:46;;;;;;;15.38;9.98;;;;;;;19.97;77.49;98576.03;4372755;79;28511;-79
2022/09/25 19:46:23;;;;;;;13.08;8.70;;;;;;;20.00;78.70;98563.14;4438064;78;28600;-86
2022/09/25 19:52:29;;;;;;;14.63;9.75;;;;;;;19.83;80.36;98559.64;4430277;78;28591;-85
2022/09/25 19:58:37;;;;;;;15.53;9.90;;;;;;;19.61;82.73;98561.17;4413935;79;28510;-81
2022/09/25 20:04:42;;;;;;;18.82;13.10;;;;;;;19.78;81.26;98561.92;4429309;79;28542;-80
2022/09/25 20:10:49;;;;;;;;;;;;;;;19.50;82.73;98566.00;4358835;81;28503;-83
2022/09/25 20:17:01;;;;;;;17.10;10.88;;;;;;;19.47;84.69;98565.25;4354168;80;20124;-91
2022/09/25 20:23:10;;;;;;;15.45;10.55;;;;;;;19.49;85.69;98559.51;4382651;80;28554;-85
2022/09/25 20:29:15;;;;;;;19.95;11.28;;;;;;;19.56;85.95;98546.83;4458808;80;28539;-88
2022/09/25 20:35:18;;;;;;;18.12;9.90;;;;;;;19.31;87.99;98535.30;4368117;79;28474;-86
2022/09/25 20:41:22;;;;;;;17.60;10.48;;;;;;;19.26;88.33;98534.05;4375189;80;28526;-86
2022/09/25 20:47:25;;;;;;;20.40;10.40;;;;;;;19.11;91.01;98526.42;4313149;81;28667;-86
2022/09/25 20:53:28;;;;;;;16.20;11.20;;;;;;;19.19;89.70;98523.55;4274421;80;28578;-86
2022/09/25 20:59:31;;;;;;;22.02;11.68;;;;;;;19.08;90.39;98522.91;4349931;80;28553;-86
2022/09/25 21:05:45;;;;;;;16.48;11.20;;;;;;;19.04;90.76;98517.82;4419649;79;28522;-89
2022/09/25 21:11:44;;;;;;;21.68;11.55;;;;;;;19.16;89.40;98522.77;4416769;79;28603;-88
2022/09/25 21:17:45;;;;;;;19.15;12.05;;;;;;;18.76;92.02;98514.45;4345928;81;28531;-86
2022/09/25 21:23:53;;;;;;;19.32;12.35;;;;;;;18.29;97.52;98517.64;4359715;80;28484;-88
2022/09/25 21:29:57;;;;;;;18.37;12.58;;;;;;;18.15;98.01;98521.65;4356274;80;28522;-86
2022/09/25 21:35:59;;;;;;;18.62;11.83;;;;;;;17.77;100.00;98531.38;4389460;79;28523;-85
2022/09/25 21:42:03;;;;;;;18.32;12.33;;;;;;;17.89;100.00;98520.63;4384924;81;29067;-85
2022/09/25 21:48:05;;;;;;;19.52;12.50;;;;;;;17.55;100.00;98509.63;4391172;80;28462;-85
2022/09/25 21:54:08;;;;;;;21.93;12.98;;;;;;;17.55;100.00;98510.98;4401771;80;28539;-86
2022/09/25 22:00:12;;;;;;;18.87;12.20;;;;;;;17.46;99.79;98507.30;4360664;81;28540;-85
2022/09/25 22:06:20;;;;;;;20.33;13.23;;;;;;;17.38;97.14;98503.84;4353017;80;28552;-86
2022/09/25 22:12:21;;;;;;;22.90;13.98;;;;;;;17.26;98.37;98496.91;4346936;80;28563;-84
2022/09/25 22:18:23;;;;;;;18.05;11.93;;;;;;;17.14;99.77;98495.94;4308473;81;28453;-87
2022/09/25 22:24:25;;;;;;;20.82;13.03;;;;;;;17.20;96.25;98492.63;4398015;80;28467;-87
2022/09/25 22:30:26;;;;;;;18.48;12.13;;;;;;;17.31;96.35;98491.15;4362085;80;28516;-86
2022/09/25 22:36:29;;;;;;;19.75;12.82;;;;;;;17.31;95.50;98490.61;4360818;79;28507;-86
2022/09/25 22:42:30;;;;;;;19.12;12.85;;;;;;;16.88;100.00;98487.78;4344741;80;28687;-87
2022/09/25 22:48:33;;;;;;;19.32;12.95;;;;;;;16.85;100.00;98488.59;4325573;81;28472;-86
2022/09/25 22:54:35;;;;;;;19.00;12.55;;;;;;;17.02;98.66;98486.03;4309600;81;28518;-85
2022/09/25 23:00:38;;;;;;;19.75;12.68;;;;;;;16.84;97.53;98486.98;4413257;80;28527;-85
2022/09/25 23:06:40;;;;;;;20.08;12.33;;;;;;;16.69;96.96;98477.07;4366170;80;28546;-85
2022/09/25 23:12:41;;;;;;;19.02;12.18;;;;;;;16.61;93.80;98466.03;4374620;79;28529;-85
2022/09/25 23:18:42;;;;;;;19.25;12.33;;;;;;;16.36;94.70;98459.17;4367104;81;28475;-85
2022/09/25 23:24:44;;;;;;;21.07;12.50;;;;;;;16.59;95.18;98456.81;4289862;82;28490;-85
2022/09/25 23:30:45;;;;;;;16.27;11.55;;;;;;;16.39;94.03;98457.80;4313006;82;28476;-86
2022/09/25 23:36:47;;;;;;;19.05;12.23;;;;;;;16.16;91.97;98454.17;4271432;82;28727;-85
2022/09/25 23:42:48;;;;;;;17.40;11.65;;;;;;;15.81;96.24;98445.69;4272482;82;28582;-85
2022/09/25 23:48:51;;;;;;;19.02;12.93;;;;;;;16.44;87.84;98436.87;4268972;82;28507;-87
2022/09/25 23:54:52;;;;;;;20.08;11.68;;;;;;;16.44;89.42;98441.47;4275307;82;28518;-85
